Time;durP1;ratioP1;P1;durP2;ratioP2;P2;SDS_P1;SDS_P2;PMS_P1;PMS_P2;Temp;Humidity;BMP_temperature;BMP_pressure;BME280_temperature;BME280_humidity;BME280_pressure;Samples;Min_cycle;Max_cycle;Signal;HPM_P1;HPM_P2
2022/07/05 00:00:35;;;;;;;5.38;2.20;;;16.70;99.90;;;;;;4934609;29;20531;-70
2022/07/05 00:03:01;;;;;;;5.35;2.65;;;17.40;99.90;;;;;;4937510;29;20024;-70
2022/07/05 00:05:26;;;;;;;5.95;2.67;;;16.70;99.90;;;;;;4937617;29;20496;-70
2022/07/05 00:07:52;;;;;;;5.40;2.60;;;16.60;99.90;;;;;;4938438;29;20365;-70
2022/07/05 00:10:18;;;;;;;4.30;2.70;;;16.60;99.90;;;;;;4938289;29;20028;-70
2022/07/05 00:12:43;;;;;;;6.97;2.83;;;16.60;99.90;;;;;;4938041;29;20407;-70
2022/07/05 00:15:09;;;;;;;8.10;3.10;;;16.50;99.90;;;;;;4937234;29;20046;-70
2022/07/05 00:17:34;;;;;;;7.25;2.90;;;16.50;99.90;;;;;;4938358;29;20031;-70
2022/07/05 00:20:00;;;;;;;8.52;3.38;;;16.40;99.90;;;;;;4921448;29;20099;-70
2022/07/05 00:22:26;;;;;;;10.43;3.35;;;16.40;99.90;;;;;;4938009;29;20096;-70
2022/07/05 00:24:51;;;;;;;10.20;3.47;;;16.40;99.90;;;;;;4938170;29;20031;-70
2022/07/05 00:27:17;;;;;;;16.13;4.53;;;16.30;99.90;;;;;;4938308;29;20039;-70
2022/07/05 00:29:42;;;;;;;6.20;3.25;;;16.20;99.90;;;;;;4938362;29;20451;-70
2022/07/05 00:32:08;;;;;;;12.45;3.35;;;16.20;99.90;;;;;;4938251;29;20034;-70
2022/07/05 00:34:33;;;;;;;7.90;3.50;;;16.20;99.90;;;;;;4937899;29;20034;-70
2022/07/05 00:36:59;;;;;;;7.40;3.58;;;16.20;99.90;;;;;;4937917;29;20120;-70
2022/07/05 00:39:26;;;;;;;6.45;2.38;;;16.20;99.90;;;;;;4938284;29;20111;-70
2022/07/05 00:41:52;;;;;;;8.63;2.78;;;16.30;99.90;;;;;;4937984;29;20032;-70
2022/07/05 00:44:24;;;;;;;6.38;2.55;;;16.20;99.90;;;;;;4937983;29;20024;-70
2022/07/05 00:46:50;;;;;;;5.55;3.35;;;16.20;99.90;;;;;;4919443;29;20118;-70
2022/07/05 00:49:15;;;;;;;6.93;3.33;;;16.10;99.90;;;;;;4937803;29;20156;-70
2022/07/05 00:51:41;;;;;;;5.03;2.90;;;16.00;99.90;;;;;;4937886;29;20086;-70
2022/07/05 00:54:07;;;;;;;5.78;3.03;;;16.00;99.90;;;;;;4920781;29;20107;-70
2022/07/05 00:56:32;;;;;;;5.63;2.53;;;15.90;99.90;;;;;;4937703;29;20403;-70
2022/07/05 00:58:58;;;;;;;6.90;2.80;;;15.90;99.90;;;;;;4921003;29;20496;-70
2022/07/05 01:01:23;;;;;;;6.03;3.17;;;15.70;99.90;;;;;;4920542;29;20032;-69
2022/07/05 01:03:49;;;;;;;10.02;3.15;;;15.90;99.90;;;;;;4937619;29;20028;-68
2022/07/05 01:06:14;;;;;;;6.88;3.10;;;15.80;99.90;;;;;;4937262;29;20477;-68
2022/07/05 01:08:43;;;;;;;15.02;5.07;;;15.70;99.90;;;;;;4937721;29;20484;-69
2022/07/05 01:11:09;;;;;;;8.40;3.17;;;15.70;99.90;;;;;;4920707;29;20035;-69
2022/07/05 01:13:35;;;;;;;10.80;4.50;;;15.70;99.90;;;;;;4937097;29;20436;-69
2022/07/05 01:16:01;;;;;;;12.85;4.00;;;15.70;99.90;;;;;;4937022;29;20032;-69
2022/07/05 01:18:26;;;;;;;9.15;4.28;;;15.70;99.90;;;;;;4920305;29;20071;-68
2022/07/05 01:20:52;;;;;;;4.82;3.65;;;15.70;99.90;;;;;;4937455;29;20043;-69
2022/07/05 01:23:18;;;;;;;9.35;4.20;;;15.70;99.90;;;;;;4937629;29;20069;-69
2022/07/05 01:25:44;;;;;;;10.05;3.70;;;15.80;99.90;;;;;;4937022;29;20758;-69
2022/07/05 01:28:10;;;;;;;8.15;3.50;;;16.10;99.90;;;;;;4937199;29;20051;-69
2022/07/05 01:30:36;;;;;;;6.35;3.30;;;15.70;99.90;;;;;;4935551;29;20036;-69
2022/07/05 01:33:02;;;;;;;8.25;3.60;;;15.70;99.90;;;;;;4937265;29;20439;-69
2022/07/05 01:35:27;;;;;;;12.98;3.53;;;15.70;99.90;;;;;;4937070;29;20036;-70
2022/07/05 01:37:53;;;;;;;11.75;3.33;;;15.70;99.90;;;;;;4937033;29;20027;-70
2022/07/05 01:40:19;;;;;;;9.13;3.35;;;15.70;99.90;;;;;;4937026;29;20031;-70
2022/07/05 01:42:44;;;;;;;13.45;3.60;;;15.80;99.90;;;;;;4936863;29;20032;-70
2022/07/05 01:45:10;;;;;;;6.07;3.08;;;15.80;99.90;;;;;;4919156;29;20032;-70
2022/07/05 01:47:36;;;;;;;6.13;3.65;;;15.90;99.90;;;;;;4936587;29;20111;-70
2022/07/05 01:50:02;;;;;;;7.43;3.10;;;16.00;99.90;;;;;;4919821;29;20045;-70
2022/07/05 01:52:28;;;;;;;7.07;3.08;;;16.10;99.90;;;;;;4919866;29;20116;-69
2022/07/05 01:54:54;;;;;;;6.05;3.17;;;16.10;99.90;;;;;;4919944;29;20047;-69
2022/07/05 01:57:19;;;;;;;8.40;2.85;;;16.00;99.90;;;;;;4919706;29;20028;-70
2022/07/05 01:59:45;;;;;;;6.40;3.33;;;15.90;99.90;;;;;;4919070;29;20093;-70
2022/07/05 02:02:10;;;;;;;8.05;3.05;;;15.80;99.90;;;;;;4936316;29;20020;-70
2022/07/05 02:04:36;;;;;;;6.13;3.50;;;15.60;99.90;;;;;;4936450;29;20028;-70
2022/07/05 02:07:05;;;;;;;13.25;3.50;;;15.60;99.90;;;;;;4936733;29;20032;-70
2022/07/05 02:09:31;;;;;;;11.68;3.95;;;15.40;99.90;;;;;;4936072;29;20032;-70
2022/07/05 02:11:56;;;;;;;10.55;3.30;;;15.40;99.90;;;;;;4936534;29;20444;-70
2022/07/05 02:14:22;;;;;;;11.75;4.75;;;15.30;99.90;;;;;;4935816;29;20071;-69
2022/07/05 02:16:47;;;;;;;8.82;3.92;;;15.30;99.90;;;;;;4936046;29;20042;-69
2022/07/05 02:19:13;;;;;;;5.15;3.72;;;15.20;99.90;;;;;;4936245;29;20024;-69
2022/07/05 02:21:38;;;;;;;6.80;4.00;;;15.10;99.90;;;;;;4936080;29;20361;-69
2022/07/05 02:24:05;;;;;;;10.15;4.28;;;15.10;99.90;;;;;;4936134;29;20032;-69
2022/07/05 02:26:30;;;;;;;5.90;3.80;;;15.00;99.90;;;;;;4935973;29;20035;-70
2022/07/05 02:28:56;;;;;;;5.88;4.55;;;15.00;99.90;;;;;;4936311;29;20030;-70
2022/07/05 02:31:21;;;;;;;8.65;4.10;;;15.10;99.90;;;;;;4935639;29;20107;-70
2022/07/05 02:33:47;;;;;;;11.35;4.68;;;15.10;99.90;;;;;;4936010;29;20028;-70
2022/07/05 02:36:13;;;;;;;10.07;4.13;;;15.20;99.90;;;;;;4936078;29;20027;-69
2022/07/05 02:38:39;;;;;;;12.18;4.22;;;15.20;99.90;;;;;;4935922;29;20032;-68
2022/07/05 02:41:08;;;;;;;16.08;5.35;;;15.20;99.90;;;;;;4935590;29;20031;-68
2022/07/05 02:43:33;;;;;;;14.80;4.97;;;15.30;99.90;;;;;;4900298;29;20043;-68
2022/07/05 02:46:00;;;;;;;13.18;5.63;;;15.30;99.90;;;;;;4928534;29;20024;-69
2022/07/05 02:48:25;;;;;;;10.43;4.00;;;15.30;99.90;;;;;;4935757;29;20043;-69
2022/07/05 02:50:51;;;;;;;9.32;3.88;;;15.30;99.90;;;;;;4935478;29;20128;-69
2022/07/05 02:53:16;;;;;;;10.65;4.30;;;15.30;99.90;;;;;;4935718;29;20551;-68
2022/07/05 02:55:42;;;;;;;7.18;3.90;;;15.40;99.90;;;;;;4935490;29;20027;-69
2022/07/05 02:58:07;;;;;;;6.57;3.85;;;15.40;99.90;;;;;;4935888;29;20032;-69
2022/07/05 03:00:33;;;;;;;4.68;3.83;;;15.60;99.90;;;;;;4935421;29;20066;-69
2022/07/05 03:02:58;;;;;;;9.73;3.80;;;15.70;99.90;;;;;;4935685;29;20452;-69
2022/07/05 03:05:24;;;;;;;10.82;4.30;;;15.70;99.90;;;;;;4935737;29;20050;-70
2022/07/05 03:07:49;;;;;;;13.20;5.25;;;15.70;99.90;;;;;;4935716;29;20046;-69
2022/07/05 03:10:15;;;;;;;15.00;5.32;;;15.60;99.90;;;;;;4934799;29;20036;-70
2022/07/05 03:12:40;;;;;;;15.00;4.80;;;15.70;99.90;;;;;;4935586;29;20144;-69
2022/07/05 03:15:07;;;;;;;17.98;5.65;;;15.60;99.90;;;;;;4928159;29;20522;-70
2022/07/05 03:17:32;;;;;;;11.85;4.43;;;15.50;99.90;;;;;;4935582;29;20032;-70
2022/07/05 03:19:58;;;;;;;12.38;4.95;;;15.40;99.90;;;;;;4935349;29;20440;-70
2022/07/05 03:22:23;;;;;;;6.32;4.13;;;15.50;99.90;;;;;;4935252;29;20058;-70
2022/07/05 03:24:49;;;;;;;8.60;4.57;;;15.50;99.90;;;;;;4935262;29;20111;-70
2022/07/05 03:27:17;;;;;;;10.98;4.05;;;15.40;99.90;;;;;;4935134;29;20035;-72
2022/07/05 03:29:43;;;;;;;12.10;4.97;;;15.40;99.90;;;;;;4934820;29;20505;-73
2022/07/05 03:32:08;;;;;;;10.75;4.88;;;15.30;99.90;;;;;;4934919;29;20060;-73
2022/07/05 03:34:34;;;;;;;11.20;4.63;;;15.30;99.90;;;;;;4935006;29;20024;-73
2022/07/05 03:36:59;;;;;;;10.07;5.45;;;15.10;99.90;;;;;;4935306;29;20032;-74
2022/07/05 03:39:25;;;;;;;8.63;4.40;;;15.10;99.90;;;;;;4935404;29;20030;-73
2022/07/05 03:41:50;;;;;;;18.55;6.80;;;15.00;99.90;;;;;;4934773;29;20108;-73
2022/07/05 03:44:16;;;;;;;17.17;6.13;;;15.00;99.90;;;;;;4935363;29;20050;-72
2022/07/05 03:46:41;;;;;;;11.82;5.60;;;15.00;99.90;;;;;;4934898;29;20456;-73
2022/07/05 03:49:07;;;;;;;12.45;5.57;;;15.00;99.90;;;;;;4935057;29;20380;-73
2022/07/05 03:51:32;;;;;;;11.57;4.13;;;14.90;99.90;;;;;;4932567;29;20031;-73
2022/07/05 03:53:58;;;;;;;13.55;5.72;;;15.10;99.90;;;;;;4934726;29;20036;-73
2022/07/05 03:56:24;;;;;;;15.60;6.13;;;15.10;99.90;;;;;;4934988;29;20032;-72
2022/07/05 03:58:50;;;;;;;26.67;7.18;;;15.20;99.90;;;;;;4934618;29;20036;-75
2022/07/05 04:01:16;;;;;;;18.35;7.38;;;15.40;99.90;;;;;;4935191;29;20031;-73
2022/07/05 04:03:41;;;;;;;24.45;7.03;;;15.30;99.90;;;;;;4918281;29;20024;-72
2022/07/05 04:06:08;;;;;;;16.48;6.07;;;15.20;99.90;;;;;;4935299;29;20028;-72
2022/07/05 04:08:34;;;;;;;18.65;5.95;;;15.30;99.90;;;;;;4935015;29;20027;-72
2022/07/05 04:11:00;;;;;;;12.98;5.05;;;15.30;99.90;;;;;;4935215;29;20039;-72
2022/07/05 04:13:25;;;;;;;20.00;5.65;;;15.40;99.90;;;;;;4935054;29;20044;-72
2022/07/05 04:15:51;;;;;;;8.20;4.32;;;15.50;99.90;;;;;;4934972;29;20032;-72
2022/07/05 04:18:16;;;;;;;15.63;4.43;;;15.70;99.90;;;;;;4935246;29;20048;-72
2022/07/05 04:21:19;;;;;;;11.63;4.90;;;16.00;99.90;;;;;;4934234;29;20491;-74
2022/07/05 04:23:45;;;;;;;21.45;6.53;;;16.10;99.90;;;;;;4938115;29;20039;-72
2022/07/05 04:26:10;;;;;;;14.65;5.07;;;16.20;99.90;;;;;;4937036;29;20042;-69
2022/07/05 04:28:36;;;;;;;28.75;8.32;;;16.80;99.90;;;;;;4938526;29;20503;-68
2022/07/05 04:31:01;;;;;;;63.53;13.70;;;17.00;99.90;;;;;;4925813;29;20047;-73
2022/07/05 04:33:27;;;;;;;32.88;8.30;;;16.80;99.90;;;;;;4925919;29;20445;-74
2022/07/05 04:35:52;;;;;;;33.85;7.65;;;16.80;99.90;;;;;;4934035;29;20059;-69
2022/07/05 04:38:18;;;;;;;27.25;6.90;;;17.10;99.90;;;;;;4938441;29;20042;-68
2022/07/05 04:40:49;;;;;;;45.88;10.30;;;17.00;99.90;;;;;;4938318;29;20035;-70
2022/07/05 04:43:14;;;;;;;57.13;12.70;;;17.10;99.90;;;;;;4938438;29;20071;-68
2022/07/05 04:45:40;;;;;;;32.92;8.52;;;17.00;99.90;;;;;;4937743;29;20032;-68
2022/07/05 04:48:05;;;;;;;26.02;7.55;;;16.90;99.90;;;;;;4928974;29;20449;-69
2022/07/05 04:50:31;;;;;;;19.25;5.78;;;16.70;99.90;;;;;;4938047;29;20043;-68
2022/07/05 04:52:56;;;;;;;25.10;7.78;;;16.50;99.90;;;;;;4925905;29;20047;-68
2022/07/05 04:55:22;;;;;;;19.48;6.82;;;17.60;99.90;;;;;;4936560;29;20389;-68
2022/07/05 04:57:47;;;;;;;21.90;7.05;;;16.50;99.90;;;;;;4937951;29;20035;-68
2022/07/05 05:00:14;;;;;;;19.50;8.20;;;16.60;99.90;;;;;;4937517;29;20031;-69
2022/07/05 05:02:39;;;;;;;21.48;6.95;;;16.40;99.90;;;;;;4937332;29;20484;-69
2022/07/05 05:05:05;;;;;;;13.68;4.40;;;16.40;99.90;;;;;;4937764;29;20028;-68
2022/07/05 05:07:30;;;;;;;11.80;5.55;;;16.50;99.90;;;;;;4920248;29;20016;-68
2022/07/05 05:10:30;;;;;;;16.60;6.50;;;16.70;99.90;;;;;;4937303;29;20110;-68
2022/07/05 05:12:56;;;;;;;19.20;6.05;;;17.20;99.90;;;;;;4937611;29;20028;-68
2022/07/05 05:15:21;;;;;;;12.27;5.00;;;17.40;99.90;;;;;;4937397;29;20051;-68
2022/07/05 05:17:47;;;;;;;20.23;6.88;;;17.80;99.90;;;;;;4937289;29;20031;-68
2022/07/05 05:20:16;;;;;;;7.82;3.67;;;17.90;99.90;;;;;;4937318;29;20475;-68
2022/07/05 05:22:41;;;;;;;4.45;3.25;;;18.20;99.90;;;;;;4919453;29;20102;-68
2022/07/05 05:25:08;;;;;;;13.30;4.80;;;18.20;99.90;;;;;;4920739;29;20026;-68
2022/07/05 05:27:33;;;;;;;13.65;3.67;;;18.20;99.90;;;;;;4919114;29;20036;-68
2022/07/05 05:29:59;;;;;;;28.40;8.15;;;18.40;99.90;;;;;;4936815;29;20035;-69
2022/07/05 05:32:24;;;;;;;8.57;4.13;;;18.20;99.90;;;;;;4937547;29;20440;-68
2022/07/05 05:34:50;;;;;;;14.30;6.38;;;18.10;99.90;;;;;;4936368;29;20027;-69
2022/07/05 05:37:15;;;;;;;7.32;4.30;;;18.10;99.90;;;;;;4937040;29;20468;-68
2022/07/05 05:39:41;;;;;;;13.90;5.53;;;18.00;99.90;;;;;;4936282;29;20046;-69
2022/07/05 05:42:06;;;;;;;12.48;5.10;;;18.10;99.90;;;;;;4937299;29;20129;-69
2022/07/05 05:44:32;;;;;;;11.18;4.65;;;18.20;99.90;;;;;;4932697;29;20035;-69
2022/07/05 05:46:57;;;;;;;14.13;4.57;;;18.90;99.50;;;;;;4936964;29;20503;-69
2022/07/05 05:49:23;;;;;;;30.55;9.15;;;19.10;99.10;;;;;;4937193;29;20034;-69
2022/07/05 05:51:48;;;;;;;29.90;7.97;;;19.60;98.40;;;;;;4936961;29;20031;-69
2022/07/05 05:54:14;;;;;;;16.38;4.15;;;20.50;97.00;;;;;;4937085;29;20063;-70
2022/07/05 05:56:57;;;;;;;19.80;6.00;;;21.00;94.50;;;;;;4936472;29;20120;-70
2022/07/05 05:59:23;;;;;;;11.70;4.07;;;20.90;93.90;;;;;;4932753;29;20028;-71
2022/07/05 06:01:48;;;;;;;25.55;6.22;;;21.40;93.50;;;;;;4936258;29;20511;-70
2022/07/05 06:04:14;;;;;;;7.57;3.53;;;21.50;92.40;;;;;;4936243;29;20034;-70
2022/07/05 06:06:39;;;;;;;11.25;3.83;;;22.00;91.80;;;;;;4936156;29;20110;-70
2022/07/05 06:09:05;;;;;;;27.38;7.70;;;22.30;89.20;;;;;;4926504;29;20396;-70
2022/07/05 06:11:30;;;;;;;10.68;3.88;;;23.00;86.30;;;;;;4932268;29;20377;-71
2022/07/05 06:13:56;;;;;;;11.85;4.55;;;22.70;86.60;;;;;;4936118;29;20657;-71
2022/07/05 06:16:21;;;;;;;8.68;3.88;;;23.30;83.90;;;;;;4936484;29;20035;-70
2022/07/05 06:18:47;;;;;;;9.57;4.13;;;23.70;77.90;;;;;;4936159;29;20024;-73
2022/07/05 06:21:12;;;;;;;8.88;3.05;;;23.50;78.40;;;;;;4936846;29;20032;-72
2022/07/05 06:23:38;;;;;;;8.77;3.65;;;24.00;74.50;;;;;;4936585;29;20024;-71
2022/07/05 06:26:03;;;;;;;11.88;3.90;;;24.10;76.10;;;;;;4936422;29;20061;-70
2022/07/05 06:28:30;;;;;;;13.00;3.63;;;23.90;75.80;;;;;;4936169;29;20039;-74
2022/07/05 06:30:56;;;;;;;5.70;2.60;;;23.70;72.80;;;;;;4919225;29;20039;-72
2022/07/05 06:33:21;;;;;;;4.60;2.42;;;23.70;69.70;;;;;;4935398;29;20038;-72
2022/07/05 06:35:47;;;;;;;12.68;3.75;;;24.60;67.10;;;;;;4918963;29;20027;-67
2022/07/05 06:38:12;;;;;;;11.68;3.58;;;24.70;70.90;;;;;;4936303;29;20028;-67
2022/07/05 06:40:40;;;;;;;6.78;3.42;;;25.50;68.00;;;;;;4936143;29;20030;-65
2022/07/05 06:43:07;;;;;;;13.07;4.70;;;24.80;67.20;;;;;;4936130;29;20039;-65
2022/07/05 06:45:32;;;;;;;8.45;2.85;;;25.30;67.20;;;;;;4935212;29;20067;-74
2022/07/05 06:48:04;;;;;;;4.97;2.08;;;25.30;64.90;;;;;;4919009;29;20067;-73
2022/07/05 06:50:31;;;;;;;6.35;2.42;;;25.20;63.20;;;;;;4936155;29;20062;-73
2022/07/05 06:52:57;;;;;;;5.97;2.25;;;26.50;63.10;;;;;;4935938;29;20066;-73
2022/07/05 06:55:23;;;;;;;7.78;2.85;;;25.90;58.50;;;;;;4935922;29;20067;-68
2022/07/05 06:57:48;;;;;;;10.63;2.70;;;26.50;58.10;;;;;;4935544;29;20035;-67
2022/07/05 07:00:14;;;;;;;5.15;2.42;;;26.60;58.40;;;;;;4918655;29;20083;-67
2022/07/05 07:02:40;;;;;;;5.78;2.33;;;26.30;59.30;;;;;;4935243;29;20032;-66
2022/07/05 07:05:06;;;;;;;9.60;2.42;;;27.10;58.50;;;;;;4918767;29;20023;-67
2022/07/05 07:10:16;;;;;;;8.73;2.88;;;27.00;57.20;;;;;;4921561;29;20046;-68
2022/07/05 07:12:41;;;;;;;4.28;2.70;;;26.10;56.40;;;;;;4935630;29;20134;-67
2022/07/05 07:15:07;;;;;;;10.63;5.68;;;26.50;56.60;;;;;;4935404;29;20074;-66
2022/07/05 07:17:33;;;;;;;7.05;4.00;;;25.90;58.30;;;;;;4935708;29;20490;-65
2022/07/05 07:19:58;;;;;;;7.50;3.80;;;25.40;59.60;;;;;;4935550;29;20042;-67
2022/07/05 07:22:24;;;;;;;8.50;3.72;;;25.60;60.00;;;;;;4935818;29;20388;-67
2022/07/05 07:25:23;;;;;;;6.75;3.88;;;26.90;57.20;;;;;;4935501;29;20028;-67
2022/07/05 07:27:49;;;;;;;7.88;3.38;;;25.90;57.30;;;;;;4931819;29;20523;-67
2022/07/05 07:30:16;;;;;;;12.00;3.80;;;26.50;57.20;;;;;;4935646;29;20455;-67
2022/07/05 07:32:42;;;;;;;7.00;3.63;;;26.70;56.30;;;;;;4935567;29;20024;-67
2022/07/05 07:35:08;;;;;;;6.88;3.08;;;26.90;57.60;;;;;;4935479;29;20032;-67
2022/07/05 07:37:33;;;;;;;5.40;2.70;;;27.60;55.10;;;;;;4935546;29;20098;-67
2022/07/05 07:40:00;;;;;;;9.20;3.42;;;28.00;53.80;;;;;;4918527;29;20543;-66
2022/07/05 07:42:26;;;;;;;4.18;2.50;;;27.40;54.00;;;;;;4935559;29;20024;-67
2022/07/05 07:44:52;;;;;;;4.78;2.55;;;28.00;52.50;;;;;;4935394;29;20048;-67
2022/07/05 07:47:17;;;;;;;14.65;3.38;;;28.30;51.60;;;;;;4918460;29;20441;-74
2022/07/05 07:49:43;;;;;;;8.20;3.45;;;29.50;50.50;;;;;;4918400;29;20127;-73
2022/07/05 07:52:08;;;;;;;9.18;3.88;;;29.30;50.70;;;;;;4935316;29;20052;-73
2022/07/05 07:54:34;;;;;;;7.68;3.50;;;28.50;51.90;;;;;;4918309;29;20115;-72
2022/07/05 07:57:01;;;;;;;7.25;2.97;;;26.70;53.60;;;;;;4919830;29;20114;-73
2022/07/05 07:59:27;;;;;;;7.05;3.13;;;28.50;52.40;;;;;;4939179;29;20027;-74
2022/07/05 08:01:52;;;;;;;10.00;3.80;;;29.50;52.00;;;;;;4939072;29;20024;-77
2022/07/05 08:04:18;;;;;;;7.00;2.90;;;27.50;52.20;;;;;;4938991;29;20110;-74
2022/07/05 08:06:43;;;;;;;9.35;3.13;;;28.40;50.90;;;;;;4922010;29;20079;-74
2022/07/05 08:09:09;;;;;;;7.00;3.03;;;28.90;51.90;;;;;;4939082;29;20028;-74
2022/07/05 08:11:35;;;;;;;10.73;2.47;;;28.60;50.20;;;;;;4921954;29;20062;-74
2022/07/05 08:14:00;;;;;;;9.48;2.92;;;28.80;49.80;;;;;;4925463;29;20048;-73
2022/07/05 08:16:26;;;;;;;7.97;2.45;;;25.70;53.20;;;;;;4938799;29;20023;-74
2022/07/05 08:21:37;;;;;;;7.45;2.30;;;28.40;50.80;;;;;;4938852;29;20090;-74
2022/07/05 08:24:07;;;;;;;4.00;2.17;;;26.30;52.40;;;;;;4938605;29;20031;-76
2022/07/05 08:26:33;;;;;;;11.05;2.80;;;27.30;52.10;;;;;;4938837;29;20058;-76
2022/07/05 08:28:59;;;;;;;6.03;2.20;;;26.80;51.70;;;;;;4938516;29;20408;-75
2022/07/05 08:31:25;;;;;;;6.88;2.35;;;27.10;52.40;;;;;;4938542;29;20047;-75
2022/07/05 08:33:51;;;;;;;4.20;1.65;;;26.80;50.80;;;;;;4953143;29;20510;-74
2022/07/05 08:36:17;;;;;;;4.25;2.05;;;28.20;51.30;;;;;;4938360;29;20028;-74
2022/07/05 08:38:42;;;;;;;6.60;1.60;;;27.40;49.70;;;;;;4938328;29;20074;-74
2022/07/05 08:41:09;;;;;;;2.65;1.40;;;27.30;50.90;;;;;;4969213;28;20476;-75
2022/07/05 08:43:36;;;;;;;6.68;1.58;;;29.60;50.40;;;;;;4968909;28;20030;-75
2022/07/05 08:46:02;;;;;;;3.70;2.08;;;28.40;49.90;;;;;;4938239;29;20031;-75
2022/07/05 08:48:27;;;;;;;6.57;2.50;;;27.90;51.00;;;;;;4969168;28;20393;-75
2022/07/05 08:50:53;;;;;;;7.00;2.38;;;27.60;51.10;;;;;;4969127;28;20027;-75
2022/07/05 08:53:18;;;;;;;5.15;1.88;;;25.20;54.90;;;;;;4969206;28;20169;-75
2022/07/05 08:55:44;;;;;;;5.90;2.10;;;25.40;55.10;;;;;;4969003;28;20099;-74
2022/07/05 08:58:10;;;;;;;6.22;1.92;;;27.20;53.40;;;;;;4968785;28;20023;-74
2022/07/05 09:00:37;;;;;;;7.80;2.35;;;26.70;54.90;;;;;;4968885;28;20047;-74
2022/07/05 09:03:02;;;;;;;5.18;2.28;;;25.10;53.00;;;;;;4952581;29;20083;-75
2022/07/05 09:05:28;;;;;;;15.45;2.63;;;24.90;55.40;;;;;;4969105;28;20027;-75
2022/07/05 09:08:00;;;;;;;4.93;1.85;;;24.50;55.80;;;;;;4967884;28;20020;-74
2022/07/05 09:10:30;;;;;;;5.80;1.90;;;25.50;55.90;;;;;;4968809;28;20046;-74
2022/07/05 09:12:56;;;;;;;7.75;1.85;;;26.00;55.30;;;;;;4937692;29;20503;-75
2022/07/05 09:15:21;;;;;;;6.05;1.92;;;26.80;54.90;;;;;;4937602;29;20056;-74
2022/07/05 09:17:47;;;;;;;5.18;2.17;;;27.50;51.00;;;;;;4936667;29;20106;-75
2022/07/05 09:20:14;;;;;;;9.25;2.05;;;29.50;48.90;;;;;;4937650;29;20034;-74
2022/07/05 09:22:52;;;;;;;5.03;2.20;;;29.20;50.00;;;;;;4937859;29;20031;-77
2022/07/05 09:25:18;;;;;;;6.03;1.98;;;27.80;51.90;;;;;;4921492;29;20058;-75
2022/07/05 09:27:51;;;;;;;9.52;2.50;;;27.90;50.60;;;;;;4937650;29;20031;-75
2022/07/05 09:30:31;;;;;;;8.45;1.45;;;25.20;53.20;;;;;;4937510;29;20031;-75
2022/07/05 09:33:15;;;;;;;3.47;1.42;;;25.10;53.80;;;;;;4920394;29;20019;-74
2022/07/05 09:35:42;;;;;;;4.83;1.80;;;24.30;56.90;;;;;;4937489;29;20063;-74
2022/07/05 09:38:21;;;;;;;7.18;2.03;;;24.30;58.00;;;;;;4937326;29;20031;-74
2022/07/05 09:40:51;;;;;;;10.02;3.75;;;24.10;58.60;;;;;;4920507;29;20030;-74
2022/07/05 09:43:19;;;;;;;10.90;2.00;;;24.60;58.40;;;;;;4937098;29;20115;-74
2022/07/05 09:45:53;;;;;;;7.20;2.03;;;26.20;56.30;;;;;;4937276;29;20028;-75
2022/07/05 09:48:19;;;;;;;3.47;1.42;;;27.30;54.00;;;;;;4937093;29;20047;-75
2022/07/05 09:50:45;;;;;;;4.25;1.30;;;27.20;51.30;;;;;;4937122;29;20043;-74
2022/07/05 09:53:11;;;;;;;8.05;2.45;;;27.30;50.90;;;;;;4920119;29;20032;-74
2022/07/05 09:55:37;;;;;;;5.25;1.35;;;27.50;53.60;;;;;;4936000;29;20055;-74
2022/07/05 09:58:03;;;;;;;2.22;1.52;;;27.00;52.10;;;;;;4920003;29;20472;-74
2022/07/05 10:00:29;;;;;;;8.82;2.25;;;26.80;52.60;;;;;;4920039;29;20023;-75
2022/07/05 10:03:02;;;;;;;11.60;2.17;;;27.20;53.30;;;;;;4936851;29;20016;-75
2022/07/05 10:05:31;;;;;;;3.13;1.67;;;28.80;50.10;;;;;;4920940;29;20082;-75
2022/07/05 10:07:58;;;;;;;10.45;8.15;;;30.10;48.30;;;;;;4936813;29;20028;-74
2022/07/05 10:10:28;;;;;;;2.20;1.17;;;30.70;47.90;;;;;;4936869;29;20035;-75
2022/07/05 10:13:01;;;;;;;4.40;1.67;;;28.80;46.40;;;;;;4936648;29;20106;-75
2022/07/05 10:15:32;;;;;;;5.53;2.38;;;26.70;46.40;;;;;;4936570;29;20178;-75
2022/07/05 10:18:14;;;;;;;3.90;1.30;;;27.00;48.30;;;;;;4919690;29;20102;-74
2022/07/05 10:20:44;;;;;;;3.80;1.50;;;26.90;51.50;;;;;;4919586;29;20027;-74
2022/07/05 10:23:13;;;;;;;4.38;1.80;;;27.10;47.20;;;;;;4936469;29;20114;-74
2022/07/05 10:25:40;;;;;;;5.35;1.40;;;26.90;45.70;;;;;;4936588;29;20072;-74
2022/07/05 10:28:07;;;;;;;4.68;1.67;;;27.40;47.30;;;;;;4919341;29;20036;-75
2022/07/05 10:30:33;;;;;;;4.20;1.80;;;26.60;45.20;;;;;;4919446;29;20031;-75
2022/07/05 10:33:01;;;;;;;4.07;1.15;;;28.70;45.40;;;;;;4919386;29;20031;-75
2022/07/05 10:35:26;;;;;;;6.57;2.10;;;27.80;44.00;;;;;;4919589;29;20035;-74
2022/07/05 10:37:52;;;;;;;5.07;1.30;;;29.00;45.50;;;;;;4935168;29;20020;-74
2022/07/05 10:40:20;;;;;;;3.00;1.20;;;27.80;46.60;;;;;;4935244;29;20024;-75
2022/07/05 10:42:48;;;;;;;2.63;1.30;;;28.80;46.30;;;;;;4935111;29;20055;-74
2022/07/05 10:45:32;;;;;;;7.80;1.50;;;29.40;44.90;;;;;;4935318;29;20027;-74
2022/07/05 10:48:13;;;;;;;5.07;1.80;;;27.30;47.00;;;;;;4936102;29;20020;-74
2022/07/05 10:51:00;;;;;;;4.10;1.60;;;27.10;50.10;;;;;;4936068;29;20032;-74
2022/07/05 10:53:32;;;;;;;6.15;1.40;;;28.10;46.50;;;;;;4936228;29;20091;-75
2022/07/05 10:56:03;;;;;;;6.43;2.03;;;27.60;49.40;;;;;;4935855;29;20036;-74
2022/07/05 10:58:36;;;;;;;5.97;2.08;;;28.90;49.70;;;;;;4935976;29;20038;-75
2022/07/05 11:01:20;;;;;;;7.35;2.30;;;28.90;48.10;;;;;;4935848;29;20361;-75
2022/07/05 11:04:00;;;;;;;4.53;1.90;;;26.80;49.90;;;;;;4935950;29;20487;-74
2022/07/05 11:06:39;;;;;;;2.80;1.77;;;26.50;51.90;;;;;;4935927;29;20036;-74
2022/07/05 11:09:11;;;;;;;2.75;1.55;;;26.80;51.30;;;;;;4935769;29;20027;-75
2022/07/05 11:11:40;;;;;;;10.65;5.57;;;27.30;50.10;;;;;;4935926;29;20024;-74
2022/07/05 11:14:25;;;;;;;14.77;12.93;;;27.00;50.70;;;;;;4935357;29;20066;-74
2022/07/05 11:17:13;;;;;;;6.97;2.03;;;27.70;50.80;;;;;;4935559;29;20543;-74
2022/07/05 11:20:01;;;;;;;7.38;2.50;;;26.20;51.60;;;;;;4935717;29;20395;-74
2022/07/05 11:22:27;;;;;;;4.32;2.10;;;25.00;52.80;;;;;;4935705;29;20034;-74
2022/07/05 11:24:52;;;;;;;4.93;2.05;;;26.40;52.40;;;;;;4935707;29;20023;-74
2022/07/05 11:27:18;;;;;;;3.90;1.70;;;27.60;54.40;;;;;;4934418;29;20086;-74
2022/07/05 11:29:44;;;;;;;6.75;2.03;;;28.70;49.50;;;;;;4934475;29;20071;-72
2022/07/05 11:32:19;;;;;;;5.70;2.65;;;28.50;47.50;;;;;;4934843;29;20087;-77
2022/07/05 11:34:55;;;;;;;5.60;2.22;;;27.00;48.50;;;;;;4935349;29;20060;-76
2022/07/05 11:37:32;;;;;;;7.05;1.92;;;26.00;52.20;;;;;;4917795;29;20484;-75
2022/07/05 11:40:06;;;;;;;7.90;2.53;;;25.40;52.60;;;;;;4934954;29;20027;-75
2022/07/05 11:42:33;;;;;;;8.27;2.33;;;26.10;52.90;;;;;;4935139;29;20020;-75
2022/07/05 11:44:59;;;;;;;3.63;1.90;;;27.10;50.30;;;;;;4934956;29;20087;-75
2022/07/05 11:47:24;;;;;;;3.53;2.17;;;27.50;50.30;;;;;;4935007;29;20028;-76
2022/07/05 11:49:57;;;;;;;5.22;1.70;;;27.30;50.10;;;;;;4918113;29;20518;-76
2022/07/05 11:52:29;;;;;;;2.97;1.58;;;28.20;49.80;;;;;;4917970;29;20070;-77
2022/07/05 11:54:59;;;;;;;4.20;1.92;;;29.00;49.40;;;;;;4934994;29;20067;-78
2022/07/05 11:57:25;;;;;;;4.45;1.70;;;27.90;48.00;;;;;;4934890;29;20024;-77
2022/07/05 11:59:50;;;;;;;10.18;2.13;;;27.80;47.20;;;;;;4934926;29;20020;-77
2022/07/05 12:02:16;;;;;;;5.93;1.30;;;27.90;48.80;;;;;;4934803;29;20024;-77
2022/07/05 12:04:54;;;;;;;8.07;2.13;;;28.90;47.60;;;;;;4934911;29;20027;-77
2022/07/05 12:07:30;;;;;;;5.35;1.67;;;27.70;47.60;;;;;;4918185;29;20035;-77
2022/07/05 12:12:42;;;;;;;6.57;1.52;;;26.50;51.00;;;;;;4934762;29;20051;-78
2022/07/05 12:15:15;;;;;;;3.47;1.60;;;27.50;48.90;;;;;;4934515;29;20044;-77
2022/07/05 12:17:44;;;;;;;2.78;1.40;;;26.70;48.80;;;;;;4917828;29;20551;-77
2022/07/05 12:20:11;;;;;;;4.15;2.92;;;26.70;49.60;;;;;;4918186;29;20035;-78
2022/07/05 12:22:41;;;;;;;2.72;1.90;;;27.50;50.20;;;;;;4934731;29;20028;-77
2022/07/05 12:25:09;;;;;;;3.05;1.55;;;27.90;50.50;;;;;;4917537;29;20403;-78
2022/07/05 12:27:37;;;;;;;5.10;1.80;;;27.30;47.80;;;;;;4918036;29;20032;-76
2022/07/05 12:30:03;;;;;;;2.92;1.60;;;27.30;49.40;;;;;;4917723;29;20539;-75
2022/07/05 12:32:30;;;;;;;2.80;1.77;;;26.30;47.80;;;;;;4934638;29;20039;-75
2022/07/05 12:34:56;;;;;;;7.47;2.17;;;26.60;48.90;;;;;;4934591;29;20035;-76
2022/07/05 12:37:28;;;;;;;5.22;1.50;;;26.30;49.30;;;;;;4934243;29;20039;-77
2022/07/05 12:40:07;;;;;;;14.15;2.58;;;27.10;47.00;;;;;;4918091;29;20024;-76
2022/07/05 12:42:33;;;;;;;5.88;2.05;;;26.10;49.00;;;;;;4934703;29;20023;-73
2022/07/05 12:45:13;;;;;;;4.53;1.50;;;26.70;49.10;;;;;;4920339;29;20034;-73
2022/07/05 12:47:53;;;;;;;4.57;2.15;;;26.30;48.00;;;;;;4937816;29;20035;-77
2022/07/05 12:50:22;;;;;;;5.18;2.53;;;26.00;48.90;;;;;;4937725;29;20258;-76
2022/07/05 12:58:55;;;;;;;3.17;1.63;;;25.60;50.80;;;;;;4924057;29;20039;-76